sensor_id;sensor_type;location;lat;lon;timestamp;P1;durP1;ratioP1;P2;durP2;ratioP2
54328;SDS011;40710;51.120;13.136;2022-09-02T00:02:03;1212.43;;;460.90;;
54328;SDS011;40710;51.120;13.136;2022-09-02T00:04:28;1221.72;;;463.48;;
54328;SDS011;40710;51.120;13.136;2022-09-02T00:06:53;1219.43;;;472.08;;
54328;SDS011;40710;51.120;13.136;2022-09-02T00:09:19;1230.10;;;482.33;;
54328;SDS011;40710;51.120;13.136;2022-09-02T00:11:47;1182.40;;;461.63;;
54328;SDS011;40710;51.120;13.136;2022-09-02T00:14:15;1166.25;;;422.77;;
54328;SDS011;40710;51.120;13.136;2022-09-02T00:16:42;1159.70;;;431.83;;
54328;SDS011;40710;51.120;13.136;2022-09-02T00:19:14;1211.68;;;456.83;;
54328;SDS011;40710;51.120;13.136;2022-09-02T00:21:38;1241.25;;;468.05;;
54328;SDS011;40710;51.120;13.136;2022-09-02T00:24:03;1209.50;;;439.40;;
54328;SDS011;40710;51.120;13.136;2022-09-02T00:26:28;1199.97;;;432.30;;
54328;SDS011;40710;51.120;13.136;2022-09-02T00:28:53;1317.68;;;539.53;;
54328;SDS011;40710;51.120;13.136;2022-09-02T00:31:17;1205.18;;;430.77;;
54328;SDS011;40710;51.120;13.136;2022-09-02T00:33:42;1239.13;;;509.40;;
54328;SDS011;40710;51.120;13.136;2022-09-02T00:36:07;1316.45;;;537.58;;
54328;SDS011;40710;51.120;13.136;2022-09-02T00:38:32;1481.57;;;653.10;;
54328;SDS011;40710;51.120;13.136;2022-09-02T00:40:59;1361.93;;;599.47;;
54328;SDS011;40710;51.120;13.136;2022-09-02T00:43:44;1269.32;;;482.10;;
54328;SDS011;40710;51.120;13.136;2022-09-02T00:46:18;1303.68;;;526.22;;
54328;SDS011;40710;51.120;13.136;2022-09-02T00:48:46;1168.93;;;397.17;;
54328;SDS011;40710;51.120;13.136;2022-09-02T00:51:20;1237.70;;;428.95;;
54328;SDS011;40710;51.120;13.136;2022-09-02T00:53:45;1207.95;;;391.85;;
54328;SDS011;40710;51.120;13.136;2022-09-02T00:56:13;1288.93;;;436.40;;
54328;SDS011;40710;51.120;13.136;2022-09-02T00:58:42;1294.40;;;440.33;;
54328;SDS011;40710;51.120;13.136;2022-09-02T01:01:07;1283.25;;;436.77;;
54328;SDS011;40710;51.120;13.136;2022-09-02T01:03:34;1311.07;;;481.70;;
54328;SDS011;40710;51.120;13.136;2022-09-02T01:05:58;1267.57;;;445.13;;
54328;SDS011;40710;51.120;13.136;2022-09-02T01:08:26;1271.22;;;425.90;;
54328;SDS011;40710;51.120;13.136;2022-09-02T01:10:55;1244.13;;;435.60;;
54328;SDS011;40710;51.120;13.136;2022-09-02T01:13:21;1217.68;;;445.23;;
54328;SDS011;40710;51.120;13.136;2022-09-02T01:15:49;1227.85;;;450.45;;
54328;SDS011;40710;51.120;13.136;2022-09-02T01:18:18;1202.30;;;442.60;;
54328;SDS011;40710;51.120;13.136;2022-09-02T01:20:47;1193.55;;;460.33;;
54328;SDS011;40710;51.120;13.136;2022-09-02T01:23:12;1152.88;;;465.67;;
54328;SDS011;40710;51.120;13.136;2022-09-02T01:25:39;1162.40;;;474.33;;
54328;SDS011;40710;51.120;13.136;2022-09-02T01:28:05;1223.25;;;483.65;;
54328;SDS011;40710;51.120;13.136;2022-09-02T01:30:32;1163.60;;;412.17;;
54328;SDS011;40710;51.120;13.136;2022-09-02T01:32:57;1203.55;;;455.65;;
54328;SDS011;40710;51.120;13.136;2022-09-02T01:35:22;1176.80;;;459.65;;
54328;SDS011;40710;51.120;13.136;2022-09-02T01:37:47;1123.25;;;420.73;;
54328;SDS011;40710;51.120;13.136;2022-09-02T01:40:12;1117.25;;;433.52;;
54328;SDS011;40710;51.120;13.136;2022-09-02T01:42:38;1140.75;;;425.40;;
54328;SDS011;40710;51.120;13.136;2022-09-02T01:45:04;1142.65;;;414.85;;
54328;SDS011;40710;51.120;13.136;2022-09-02T01:47:29;1134.80;;;420.95;;
54328;SDS011;40710;51.120;13.136;2022-09-02T01:49:55;1123.38;;;418.33;;
54328;SDS011;40710;51.120;13.136;2022-09-02T01:52:20;1120.80;;;432.65;;
54328;SDS011;40710;51.120;13.136;2022-09-02T01:54:46;1118.65;;;417.95;;
54328;SDS011;40710;51.120;13.136;2022-09-02T01:57:11;1171.60;;;450.70;;
54328;SDS011;40710;51.120;13.136;2022-09-02T01:59:36;1125.57;;;426.55;;
54328;SDS011;40710;51.120;13.136;2022-09-02T02:02:00;1161.20;;;462.65;;
54328;SDS011;40710;51.120;13.136;2022-09-02T02:04:25;1114.95;;;435.27;;
54328;SDS011;40710;51.120;13.136;2022-09-02T02:06:50;1109.82;;;437.95;;
54328;SDS011;40710;51.120;13.136;2022-09-02T02:09:15;1088.07;;;420.02;;
54328;SDS011;40710;51.120;13.136;2022-09-02T02:11:40;1296.97;;;517.53;;
54328;SDS011;40710;51.120;13.136;2022-09-02T02:14:05;1383.80;;;585.95;;
54328;SDS011;40710;51.120;13.136;2022-09-02T02:16:29;1468.47;;;633.28;;
54328;SDS011;40710;51.120;13.136;2022-09-02T02:18:54;1373.57;;;570.60;;
54328;SDS011;40710;51.120;13.136;2022-09-02T02:21:19;1353.15;;;415.48;;
54328;SDS011;40710;51.120;13.136;2022-09-02T02:23:43;1272.68;;;385.45;;
54328;SDS011;40710;51.120;13.136;2022-09-02T02:26:08;1273.57;;;425.15;;
54328;SDS011;40710;51.120;13.136;2022-09-02T02:28:32;1247.65;;;410.80;;
54328;SDS011;40710;51.120;13.136;2022-09-02T02:30:57;1272.30;;;429.92;;
54328;SDS011;40710;51.120;13.136;2022-09-02T02:33:23;1189.05;;;442.63;;
54328;SDS011;40710;51.120;13.136;2022-09-02T02:35:48;1184.07;;;449.20;;
54328;SDS011;40710;51.120;13.136;2022-09-02T02:38:13;1097.22;;;397.67;;
54328;SDS011;40710;51.120;13.136;2022-09-02T02:40:37;1061.95;;;363.30;;
54328;SDS011;40710;51.120;13.136;2022-09-02T02:43:02;1088.00;;;382.02;;
54328;SDS011;40710;51.120;13.136;2022-09-02T02:45:27;1192.25;;;366.52;;
54328;SDS011;40710;51.120;13.136;2022-09-02T02:47:52;1220.18;;;377.75;;
54328;SDS011;40710;51.120;13.136;2022-09-02T02:50:17;1236.82;;;370.17;;
54328;SDS011;40710;51.120;13.136;2022-09-02T02:52:44;1241.40;;;388.83;;
54328;SDS011;40710;51.120;13.136;2022-09-02T02:55:10;1182.53;;;360.70;;
54328;SDS011;40710;51.120;13.136;2022-09-02T02:57:35;1190.28;;;382.05;;
54328;SDS011;40710;51.120;13.136;2022-09-02T03:00:09;1124.15;;;353.75;;
54328;SDS011;40710;51.120;13.136;2022-09-02T03:02:41;1174.82;;;358.50;;
54328;SDS011;40710;51.120;13.136;2022-09-02T03:05:08;1200.00;;;399.08;;
54328;SDS011;40710;51.120;13.136;2022-09-02T03:07:33;1187.07;;;386.52;;
54328;SDS011;40710;51.120;13.136;2022-09-02T03:09:58;1221.97;;;402.00;;
54328;SDS011;40710;51.120;13.136;2022-09-02T03:12:22;1182.68;;;404.40;;
54328;SDS011;40710;51.120;13.136;2022-09-02T03:14:47;1150.80;;;416.55;;
54328;SDS011;40710;51.120;13.136;2022-09-02T03:17:12;1224.03;;;509.92;;
54328;SDS011;40710;51.120;13.136;2022-09-02T03:19:36;1235.93;;;521.25;;
54328;SDS011;40710;51.120;13.136;2022-09-02T03:22:02;1151.60;;;462.10;;
54328;SDS011;40710;51.120;13.136;2022-09-02T03:24:27;1120.40;;;420.55;;
54328;SDS011;40710;51.120;13.136;2022-09-02T03:26:52;1178.85;;;505.85;;
54328;SDS011;40710;51.120;13.136;2022-09-02T03:29:17;1190.22;;;490.83;;
54328;SDS011;40710;51.120;13.136;2022-09-02T03:31:41;1217.68;;;505.00;;
54328;SDS011;40710;51.120;13.136;2022-09-02T03:34:06;1320.28;;;579.33;;
54328;SDS011;40710;51.120;13.136;2022-09-02T03:36:32;1319.10;;;547.63;;
54328;SDS011;40710;51.120;13.136;2022-09-02T03:38:59;1238.63;;;518.70;;
54328;SDS011;40710;51.120;13.136;2022-09-02T03:41:24;1314.28;;;619.90;;
54328;SDS011;40710;51.120;13.136;2022-09-02T03:43:48;1311.32;;;618.47;;
54328;SDS011;40710;51.120;13.136;2022-09-02T03:46:13;1272.03;;;558.15;;
54328;SDS011;40710;51.120;13.136;2022-09-02T03:48:38;1218.03;;;481.73;;
54328;SDS011;40710;51.120;13.136;2022-09-02T03:51:03;1263.05;;;501.15;;
54328;SDS011;40710;51.120;13.136;2022-09-02T03:53:28;1246.45;;;565.95;;
54328;SDS011;40710;51.120;13.136;2022-09-02T03:55:54;1271.65;;;535.25;;
54328;SDS011;40710;51.120;13.136;2022-09-02T03:58:18;1199.93;;;547.88;;
54328;SDS011;40710;51.120;13.136;2022-09-02T04:00:42;1147.57;;;459.00;;
54328;SDS011;40710;51.120;13.136;2022-09-02T04:03:07;1172.72;;;461.98;;
54328;SDS011;40710;51.120;13.136;2022-09-02T04:05:32;1167.18;;;519.65;;
54328;SDS011;40710;51.120;13.136;2022-09-02T04:07:57;1143.85;;;440.88;;
54328;SDS011;40710;51.120;13.136;2022-09-02T04:10:22;1142.90;;;477.45;;
54328;SDS011;40710;51.120;13.136;2022-09-02T04:12:46;1246.15;;;536.33;;
54328;SDS011;40710;51.120;13.136;2022-09-02T04:15:12;1272.77;;;634.77;;
54328;SDS011;40710;51.120;13.136;2022-09-02T04:17:37;1178.73;;;550.53;;
54328;SDS011;40710;51.120;13.136;2022-09-02T04:20:04;1180.87;;;527.83;;
54328;SDS011;40710;51.120;13.136;2022-09-02T04:22:30;1172.53;;;514.25;;
54328;SDS011;40710;51.120;13.136;2022-09-02T04:24:55;1151.25;;;412.08;;
54328;SDS011;40710;51.120;13.136;2022-09-02T04:27:19;1139.72;;;410.77;;
54328;SDS011;40710;51.120;13.136;2022-09-02T04:29:43;1118.70;;;401.05;;
54328;SDS011;40710;51.120;13.136;2022-09-02T04:32:08;1173.93;;;435.15;;
54328;SDS011;40710;51.120;13.136;2022-09-02T04:34:32;1194.80;;;431.23;;
54328;SDS011;40710;51.120;13.136;2022-09-02T04:36:57;1172.82;;;445.95;;
54328;SDS011;40710;51.120;13.136;2022-09-02T04:39:21;1156.40;;;394.95;;
54328;SDS011;40710;51.120;13.136;2022-09-02T04:41:46;1140.30;;;453.95;;
54328;SDS011;40710;51.120;13.136;2022-09-02T04:44:10;1217.22;;;482.17;;
54328;SDS011;40710;51.120;13.136;2022-09-02T04:46:34;1126.75;;;450.67;;
54328;SDS011;40710;51.120;13.136;2022-09-02T04:48:59;1131.28;;;414.50;;
54328;SDS011;40710;51.120;13.136;2022-09-02T04:51:24;1172.40;;;403.90;;
54328;SDS011;40710;51.120;13.136;2022-09-02T04:53:50;1175.65;;;454.95;;
54328;SDS011;40710;51.120;13.136;2022-09-02T04:56:17;1150.97;;;405.70;;
54328;SDS011;40710;51.120;13.136;2022-09-02T04:58:47;1180.53;;;427.10;;
54328;SDS011;40710;51.120;13.136;2022-09-02T05:01:14;1039.50;;;393.73;;
54328;SDS011;40710;51.120;13.136;2022-09-02T05:03:42;978.30;;;449.93;;
54328;SDS011;40710;51.120;13.136;2022-09-02T05:06:08;925.55;;;385.88;;
54328;SDS011;40710;51.120;13.136;2022-09-02T05:08:34;928.72;;;424.30;;
54328;SDS011;40710;51.120;13.136;2022-09-02T05:10:59;958.50;;;419.13;;
54328;SDS011;40710;51.120;13.136;2022-09-02T05:13:25;996.30;;;440.50;;
54328;SDS011;40710;51.120;13.136;2022-09-02T05:15:49;994.73;;;442.63;;
54328;SDS011;40710;51.120;13.136;2022-09-02T05:18:14;997.72;;;473.63;;
54328;SDS011;40710;51.120;13.136;2022-09-02T05:20:39;985.50;;;458.50;;
54328;SDS011;40710;51.120;13.136;2022-09-02T05:23:06;944.65;;;420.23;;
54328;SDS011;40710;51.120;13.136;2022-09-02T05:25:31;987.60;;;410.35;;
54328;SDS011;40710;51.120;13.136;2022-09-02T05:27:56;964.10;;;404.50;;
54328;SDS011;40710;51.120;13.136;2022-09-02T05:30:20;979.22;;;443.42;;
54328;SDS011;40710;51.120;13.136;2022-09-02T05:32:45;932.78;;;426.73;;
54328;SDS011;40710;51.120;13.136;2022-09-02T05:35:10;960.67;;;412.83;;
54328;SDS011;40710;51.120;13.136;2022-09-02T05:37:34;1016.63;;;441.45;;
54328;SDS011;40710;51.120;13.136;2022-09-02T05:39:59;1027.82;;;462.40;;
54328;SDS011;40710;51.120;13.136;2022-09-02T05:42:24;1088.25;;;457.45;;
54328;SDS011;40710;51.120;13.136;2022-09-02T05:44:49;1083.43;;;462.23;;
54328;SDS011;40710;51.120;13.136;2022-09-02T05:47:13;1032.85;;;442.05;;
54328;SDS011;40710;51.120;13.136;2022-09-02T05:49:37;1024.22;;;462.65;;
54328;SDS011;40710;51.120;13.136;2022-09-02T05:52:02;1086.22;;;518.00;;
54328;SDS011;40710;51.120;13.136;2022-09-02T05:54:28;1054.13;;;518.33;;
54328;SDS011;40710;51.120;13.136;2022-09-02T05:56:58;1021.80;;;494.58;;
54328;SDS011;40710;51.120;13.136;2022-09-02T05:59:25;973.38;;;406.42;;
54328;SDS011;40710;51.120;13.136;2022-09-02T06:01:51;953.83;;;420.42;;
54328;SDS011;40710;51.120;13.136;2022-09-02T06:04:16;951.10;;;408.23;;
54328;SDS011;40710;51.120;13.136;2022-09-02T06:06:41;902.03;;;374.60;;
54328;SDS011;40710;51.120;13.136;2022-09-02T06:09:06;887.97;;;386.40;;
54328;SDS011;40710;51.120;13.136;2022-09-02T06:11:33;957.83;;;366.45;;
54328;SDS011;40710;51.120;13.136;2022-09-02T06:13:57;1203.60;;;406.08;;
54328;SDS011;40710;51.120;13.136;2022-09-02T06:16:22;1132.97;;;405.10;;
54328;SDS011;40710;51.120;13.136;2022-09-02T06:18:47;1151.03;;;436.77;;
54328;SDS011;40710;51.120;13.136;2022-09-02T06:21:13;1117.15;;;364.10;;
54328;SDS011;40710;51.120;13.136;2022-09-02T06:23:39;1191.05;;;416.73;;
54328;SDS011;40710;51.120;13.136;2022-09-02T06:26:05;1166.68;;;401.17;;
54328;SDS011;40710;51.120;13.136;2022-09-02T06:28:30;1062.93;;;364.38;;
54328;SDS011;40710;51.120;13.136;2022-09-02T06:30:55;1126.43;;;421.75;;
54328;SDS011;40710;51.120;13.136;2022-09-02T06:33:20;1097.10;;;416.67;;
54328;SDS011;40710;51.120;13.136;2022-09-02T06:35:44;1058.80;;;389.17;;
54328;SDS011;40710;51.120;13.136;2022-09-02T06:38:09;1046.35;;;410.65;;
54328;SDS011;40710;51.120;13.136;2022-09-02T06:40:35;1043.45;;;435.50;;
54328;SDS011;40710;51.120;13.136;2022-09-02T06:43:08;1102.38;;;488.10;;
54328;SDS011;40710;51.120;13.136;2022-09-02T06:45:37;1107.53;;;480.98;;
54328;SDS011;40710;51.120;13.136;2022-09-02T06:48:02;1060.30;;;456.98;;
54328;SDS011;40710;51.120;13.136;2022-09-02T06:50:27;1021.65;;;435.08;;
54328;SDS011;40710;51.120;13.136;2022-09-02T06:52:51;1044.85;;;449.63;;
54328;SDS011;40710;51.120;13.136;2022-09-02T06:55:16;1089.72;;;452.25;;
54328;SDS011;40710;51.120;13.136;2022-09-02T06:57:41;1067.53;;;441.10;;
54328;SDS011;40710;51.120;13.136;2022-09-02T07:00:06;1061.22;;;447.33;;
54328;SDS011;40710;51.120;13.136;2022-09-02T07:02:32;1118.85;;;449.75;;
54328;SDS011;40710;51.120;13.136;2022-09-02T07:04:57;1136.28;;;455.55;;
54328;SDS011;40710;51.120;13.136;2022-09-02T07:07:38;1162.97;;;462.65;;
54328;SDS011;40710;51.120;13.136;2022-09-02T07:10:05;1167.00;;;448.33;;
54328;SDS011;40710;51.120;13.136;2022-09-02T07:12:33;1159.57;;;426.63;;
54328;SDS011;40710;51.120;13.136;2022-09-02T07:14:58;1136.05;;;425.55;;
54328;SDS011;40710;51.120;13.136;2022-09-02T07:17:23;1151.78;;;420.55;;
54328;SDS011;40710;51.120;13.136;2022-09-02T07:19:48;1184.40;;;414.35;;
54328;SDS011;40710;51.120;13.136;2022-09-02T07:22:13;1232.63;;;440.63;;
54328;SDS011;40710;51.120;13.136;2022-09-02T07:24:37;1100.63;;;435.58;;
54328;SDS011;40710;51.120;13.136;2022-09-02T07:27:02;1208.65;;;479.92;;
54328;SDS011;40710;51.120;13.136;2022-09-02T07:29:26;1135.03;;;460.95;;
54328;SDS011;40710;51.120;13.136;2022-09-02T07:31:51;1119.25;;;463.20;;
54328;SDS011;40710;51.120;13.136;2022-09-02T07:34:16;1100.55;;;441.65;;
54328;SDS011;40710;51.120;13.136;2022-09-02T07:36:41;1116.68;;;460.15;;
54328;SDS011;40710;51.120;13.136;2022-09-02T07:39:08;1099.13;;;455.17;;
54328;SDS011;40710;51.120;13.136;2022-09-02T07:41:34;1042.18;;;465.70;;
54328;SDS011;40710;51.120;13.136;2022-09-02T07:44:00;1056.40;;;495.48;;
54328;SDS011;40710;51.120;13.136;2022-09-02T07:46:26;1065.32;;;514.17;;
54328;SDS011;40710;51.120;13.136;2022-09-02T07:48:52;1056.75;;;486.33;;
54328;SDS011;40710;51.120;13.136;2022-09-02T07:51:17;1085.63;;;546.97;;
54328;SDS011;40710;51.120;13.136;2022-09-02T07:53:42;1198.53;;;584.38;;
54328;SDS011;40710;51.120;13.136;2022-09-02T07:56:08;1129.78;;;599.33;;
54328;SDS011;40710;51.120;13.136;2022-09-02T07:58:32;1145.80;;;582.83;;
54328;SDS011;40710;51.120;13.136;2022-09-02T08:00:57;1080.72;;;571.03;;
54328;SDS011;40710;51.120;13.136;2022-09-02T08:03:22;1076.13;;;587.13;;
54328;SDS011;40710;51.120;13.136;2022-09-02T08:05:48;1086.70;;;608.45;;
54328;SDS011;40710;51.120;13.136;2022-09-02T08:08:13;1150.95;;;606.95;;
54328;SDS011;40710;51.120;13.136;2022-09-02T08:10:40;1154.05;;;632.70;;
54328;SDS011;40710;51.120;13.136;2022-09-02T08:13:05;1130.93;;;632.30;;
54328;SDS011;40710;51.120;13.136;2022-09-02T08:15:30;1153.35;;;627.97;;
54328;SDS011;40710;51.120;13.136;2022-09-02T08:17:55;1142.15;;;666.15;;
54328;SDS011;40710;51.120;13.136;2022-09-02T08:20:20;1118.38;;;645.00;;
54328;SDS011;40710;51.120;13.136;2022-09-02T08:22:44;1119.82;;;653.88;;
54328;SDS011;40710;51.120;13.136;2022-09-02T08:25:09;1074.63;;;640.60;;
54328;SDS011;40710;51.120;13.136;2022-09-02T08:27:34;1091.18;;;676.15;;
54328;SDS011;40710;51.120;13.136;2022-09-02T08:29:58;1082.70;;;680.92;;
54328;SDS011;40710;51.120;13.136;2022-09-02T08:32:24;1065.40;;;666.88;;
54328;SDS011;40710;51.120;13.136;2022-09-02T08:34:48;1089.97;;;623.42;;
54328;SDS011;40710;51.120;13.136;2022-09-02T08:37:13;1118.63;;;645.75;;
54328;SDS011;40710;51.120;13.136;2022-09-02T08:39:37;1147.70;;;652.80;;
54328;SDS011;40710;51.120;13.136;2022-09-02T08:44:28;1102.53;;;675.83;;
54328;SDS011;40710;51.120;13.136;2022-09-02T08:46:57;1093.63;;;676.33;;
54328;SDS011;40710;51.120;13.136;2022-09-02T08:49:30;1116.20;;;703.58;;
54328;SDS011;40710;51.120;13.136;2022-09-02T08:51:59;1137.28;;;730.55;;
54328;SDS011;40710;51.120;13.136;2022-09-02T08:57:08;1094.07;;;749.78;;
54328;SDS011;40710;51.120;13.136;2022-09-02T08:59:33;1075.68;;;739.30;;
54328;SDS011;40710;51.120;13.136;2022-09-02T09:02:13;1058.47;;;715.40;;
54328;SDS011;40710;51.120;13.136;2022-09-02T09:10:20;1067.82;;;709.92;;
54328;SDS011;40710;51.120;13.136;2022-09-02T09:12:54;1103.60;;;730.97;;
54328;SDS011;40710;51.120;13.136;2022-09-02T09:18:15;1115.78;;;724.20;;
54328;SDS011;40710;51.120;13.136;2022-09-02T09:20:42;1196.25;;;729.17;;
54328;SDS011;40710;51.120;13.136;2022-09-02T09:23:12;1282.82;;;702.08;;
54328;SDS011;40710;51.120;13.136;2022-09-02T09:25:46;1230.47;;;675.42;;
54328;SDS011;40710;51.120;13.136;2022-09-02T09:28:12;1291.97;;;770.65;;
54328;SDS011;40710;51.120;13.136;2022-09-02T09:30:36;1114.25;;;672.13;;
54328;SDS011;40710;51.120;13.136;2022-09-02T09:33:02;1228.47;;;698.63;;
54328;SDS011;40710;51.120;13.136;2022-09-02T09:35:45;1145.80;;;670.40;;
54328;SDS011;40710;51.120;13.136;2022-09-02T09:38:13;1130.25;;;634.83;;
54328;SDS011;40710;51.120;13.136;2022-09-02T09:40:37;1192.63;;;652.83;;
54328;SDS011;40710;51.120;13.136;2022-09-02T09:45:29;1200.50;;;688.22;;
54328;SDS011;40710;51.120;13.136;2022-09-02T09:50:45;1075.60;;;749.55;;
54328;SDS011;40710;51.120;13.136;2022-09-02T09:53:20;1106.28;;;725.25;;
54328;SDS011;40710;51.120;13.136;2022-09-02T09:58:21;1072.85;;;680.00;;
54328;SDS011;40710;51.120;13.136;2022-09-02T10:00:50;1132.55;;;612.78;;
54328;SDS011;40710;51.120;13.136;2022-09-02T10:03:27;1026.13;;;701.65;;
54328;SDS011;40710;51.120;13.136;2022-09-02T10:05:54;1004.50;;;674.40;;
54328;SDS011;40710;51.120;13.136;2022-09-02T10:08:26;933.45;;;626.40;;
54328;SDS011;40710;51.120;13.136;2022-09-02T10:13:23;911.95;;;610.13;;
54328;SDS011;40710;51.120;13.136;2022-09-02T10:23:42;1432.45;;;571.15;;
54328;SDS011;40710;51.120;13.136;2022-09-02T10:29:08;1409.13;;;612.10;;
54328;SDS011;40710;51.120;13.136;2022-09-02T10:31:51;1398.65;;;614.72;;
54328;SDS011;40710;51.120;13.136;2022-09-02T10:40:32;1491.93;;;672.22;;
54328;SDS011;40710;51.120;13.136;2022-09-02T10:43:05;1460.97;;;699.15;;
54328;SDS011;40710;51.120;13.136;2022-09-02T10:45:36;1460.53;;;719.85;;
54328;SDS011;40710;51.120;13.136;2022-09-02T10:56:33;1497.13;;;616.53;;
54328;SDS011;40710;51.120;13.136;2022-09-02T10:59:22;1522.80;;;663.17;;
54328;SDS011;40710;51.120;13.136;2022-09-02T11:01:56;1412.90;;;652.58;;
54328;SDS011;40710;51.120;13.136;2022-09-02T11:07:18;1466.55;;;616.65;;
54328;SDS011;40710;51.120;13.136;2022-09-02T11:09:52;1402.10;;;735.15;;
54328;SDS011;40710;51.120;13.136;2022-09-02T11:12:31;1479.50;;;644.10;;
54328;SDS011;40710;51.120;13.136;2022-09-02T11:15:05;1386.22;;;709.40;;
54328;SDS011;40710;51.120;13.136;2022-09-02T11:17:35;1349.78;;;789.05;;
54328;SDS011;40710;51.120;13.136;2022-09-02T11:23:19;1355.03;;;847.80;;
54328;SDS011;40710;51.120;13.136;2022-09-02T11:25:52;1416.10;;;776.78;;
54328;SDS011;40710;51.120;13.136;2022-09-02T11:30:47;1340.35;;;822.85;;
54328;SDS011;40710;51.120;13.136;2022-09-02T11:35:49;1397.72;;;747.00;;
54328;SDS011;40710;51.120;13.136;2022-09-02T11:40:43;1406.20;;;829.95;;
54328;SDS011;40710;51.120;13.136;2022-09-02T11:43:15;1375.05;;;817.78;;
54328;SDS011;40710;51.120;13.136;2022-09-02T11:46:05;1378.68;;;805.97;;
54328;SDS011;40710;51.120;13.136;2022-09-02T11:51:55;1345.28;;;793.45;;
54328;SDS011;40710;51.120;13.136;2022-09-02T11:54:21;1407.25;;;802.78;;
54328;SDS011;40710;51.120;13.136;2022-09-02T11:56:50;1370.40;;;718.10;;
54328;SDS011;40710;51.120;13.136;2022-09-02T11:59:22;1320.22;;;778.97;;
54328;SDS011;40710;51.120;13.136;2022-09-02T12:02:07;1371.05;;;727.10;;
54328;SDS011;40710;51.120;13.136;2022-09-02T12:04:32;1337.95;;;808.40;;
54328;SDS011;40710;51.120;13.136;2022-09-02T12:09:49;1378.03;;;742.70;;
54328;SDS011;40710;51.120;13.136;2022-09-02T12:13:00;1344.28;;;800.03;;
54328;SDS011;40710;51.120;13.136;2022-09-02T12:15:21;1387.60;;;746.35;;
54328;SDS011;40710;51.120;13.136;2022-09-02T12:21:01;1395.97;;;760.25;;
54328;SDS011;40710;51.120;13.136;2022-09-02T12:23:01;1366.57;;;806.58;;
54328;SDS011;40710;51.120;13.136;2022-09-02T12:36:02;1437.90;;;753.42;;
54328;SDS011;40710;51.120;13.136;2022-09-02T12:38:32;1402.97;;;765.25;;
54328;SDS011;40710;51.120;13.136;2022-09-02T12:41:05;1412.60;;;756.47;;
54328;SDS011;40710;51.120;13.136;2022-09-02T12:44:02;1351.43;;;767.67;;
54328;SDS011;40710;51.120;13.136;2022-09-02T12:57:02;1335.82;;;776.22;;
54328;SDS011;40710;51.120;13.136;2022-09-02T12:59:28;1397.68;;;720.67;;
54328;SDS011;40710;51.120;13.136;2022-09-02T13:05:12;1392.93;;;713.42;;
54328;SDS011;40710;51.120;13.136;2022-09-02T13:10:28;1337.82;;;728.83;;
54328;SDS011;40710;51.120;13.136;2022-09-02T13:16:05;1393.53;;;641.93;;
54328;SDS011;40710;51.120;13.136;2022-09-02T13:29:58;1409.95;;;639.70;;
54328;SDS011;40710;51.120;13.136;2022-09-02T13:32:29;1360.88;;;626.03;;
54328;SDS011;40710;51.120;13.136;2022-09-02T13:34:55;1433.28;;;598.50;;
54328;SDS011;40710;51.120;13.136;2022-09-02T13:37:25;1422.38;;;580.20;;
54328;SDS011;40710;51.120;13.136;2022-09-02T13:39:58;1373.45;;;578.85;;
54328;SDS011;40710;51.120;13.136;2022-09-02T13:42:25;1381.22;;;547.55;;
54328;SDS011;40710;51.120;13.136;2022-09-02T13:45:06;1401.00;;;507.42;;
54328;SDS011;40710;51.120;13.136;2022-09-02T13:47:36;1434.50;;;575.20;;
54328;SDS011;40710;51.120;13.136;2022-09-02T13:50:04;1426.70;;;599.38;;
54328;SDS011;40710;51.120;13.136;2022-09-02T13:52:29;1423.82;;;579.45;;
54328;SDS011;40710;51.120;13.136;2022-09-02T13:54:54;1429.32;;;574.85;;
54328;SDS011;40710;51.120;13.136;2022-09-02T13:57:25;1380.38;;;569.88;;
54328;SDS011;40710;51.120;13.136;2022-09-02T13:59:53;1447.95;;;532.33;;
54328;SDS011;40710;51.120;13.136;2022-09-02T14:02:29;1447.13;;;535.80;;
54328;SDS011;40710;51.120;13.136;2022-09-02T14:04:56;1476.18;;;516.83;;
54328;SDS011;40710;51.120;13.136;2022-09-02T14:07:26;1487.13;;;501.15;;
54328;SDS011;40710;51.120;13.136;2022-09-02T14:09:54;1404.68;;;537.83;;
54328;SDS011;40710;51.120;13.136;2022-09-02T14:12:21;1478.20;;;494.17;;
54328;SDS011;40710;51.120;13.136;2022-09-02T14:14:46;1389.60;;;510.13;;
54328;SDS011;40710;51.120;13.136;2022-09-02T14:17:18;1381.55;;;507.52;;
54328;SDS011;40710;51.120;13.136;2022-09-02T14:19:44;1392.22;;;502.83;;
54328;SDS011;40710;51.120;13.136;2022-09-02T14:22:18;1485.00;;;495.40;;
54328;SDS011;40710;51.120;13.136;2022-09-02T14:24:46;1450.82;;;505.05;;
54328;SDS011;40710;51.120;13.136;2022-09-02T14:27:15;1394.90;;;508.67;;
54328;SDS011;40710;51.120;13.136;2022-09-02T14:29:44;1451.20;;;486.23;;
54328;SDS011;40710;51.120;13.136;2022-09-02T14:32:14;1388.05;;;504.75;;
54328;SDS011;40710;51.120;13.136;2022-09-02T14:34:46;1384.22;;;506.70;;
54328;SDS011;40710;51.120;13.136;2022-09-02T14:37:27;1386.03;;;488.40;;
54328;SDS011;40710;51.120;13.136;2022-09-02T14:40:02;1375.80;;;519.67;;
54328;SDS011;40710;51.120;13.136;2022-09-02T14:42:31;1376.00;;;505.23;;
54328;SDS011;40710;51.120;13.136;2022-09-02T14:44:56;1378.07;;;508.95;;
54328;SDS011;40710;51.120;13.136;2022-09-02T14:47:22;1445.82;;;497.52;;
54328;SDS011;40710;51.120;13.136;2022-09-02T14:49:50;1380.60;;;530.55;;
54328;SDS011;40710;51.120;13.136;2022-09-02T14:54:51;1393.78;;;468.85;;
54328;SDS011;40710;51.120;13.136;2022-09-02T14:59:44;1476.93;;;481.42;;
54328;SDS011;40710;51.120;13.136;2022-09-02T15:02:08;1466.22;;;475.45;;
54328;SDS011;40710;51.120;13.136;2022-09-02T15:04:45;1400.22;;;476.90;;
54328;SDS011;40710;51.120;13.136;2022-09-02T15:07:09;1402.18;;;485.85;;
54328;SDS011;40710;51.120;13.136;2022-09-02T15:09:34;1475.22;;;477.10;;
54328;SDS011;40710;51.120;13.136;2022-09-02T15:11:58;1463.55;;;456.50;;
54328;SDS011;40710;51.120;13.136;2022-09-02T15:14:22;1397.63;;;443.95;;
54328;SDS011;40710;51.120;13.136;2022-09-02T15:16:47;1475.93;;;459.77;;
54328;SDS011;40710;51.120;13.136;2022-09-02T15:19:11;1394.28;;;494.05;;
54328;SDS011;40710;51.120;13.136;2022-09-02T15:21:36;1458.63;;;468.40;;
54328;SDS011;40710;51.120;13.136;2022-09-02T15:24:00;1466.22;;;465.58;;
54328;SDS011;40710;51.120;13.136;2022-09-02T15:26:24;1486.30;;;460.35;;
54328;SDS011;40710;51.120;13.136;2022-09-02T15:28:49;1413.35;;;461.98;;
54328;SDS011;40710;51.120;13.136;2022-09-02T15:31:13;1464.20;;;474.55;;
54328;SDS011;40710;51.120;13.136;2022-09-02T15:33:38;1473.90;;;450.63;;